sensor_id;sensor_type;location;lat;lon;timestamp;P1;durP1;ratioP1;P2;durP2;ratioP2
76409;SDS011;65238;42.662;23.280;2023-12-20T00:00:16;82.55;;;36.03;;
76409;SDS011;65238;42.662;23.280;2023-12-20T00:02:42;73.78;;;36.13;;
76409;SDS011;65238;42.662;23.280;2023-12-20T00:05:11;72.00;;;33.83;;
76409;SDS011;65238;42.662;23.280;2023-12-20T00:07:37;74.38;;;33.97;;
76409;SDS011;65238;42.662;23.280;2023-12-20T00:10:03;74.75;;;33.33;;
76409;SDS011;65238;42.662;23.280;2023-12-20T00:12:29;72.40;;;30.90;;
76409;SDS011;65238;42.662;23.280;2023-12-20T00:14:54;76.00;;;32.72;;
76409;SDS011;65238;42.662;23.280;2023-12-20T00:17:20;65.25;;;30.60;;
76409;SDS011;65238;42.662;23.280;2023-12-20T00:19:45;65.43;;;31.50;;
76409;SDS011;65238;42.662;23.280;2023-12-20T00:22:11;64.63;;;32.10;;
76409;SDS011;65238;42.662;23.280;2023-12-20T00:24:36;69.63;;;34.10;;
76409;SDS011;65238;42.662;23.280;2023-12-20T00:27:02;69.82;;;33.35;;
76409;SDS011;65238;42.662;23.280;2023-12-20T00:29:27;71.07;;;31.95;;
76409;SDS011;65238;42.662;23.280;2023-12-20T00:31:53;65.07;;;30.30;;
76409;SDS011;65238;42.662;23.280;2023-12-20T00:34:18;61.20;;;28.88;;
76409;SDS011;65238;42.662;23.280;2023-12-20T00:36:43;61.88;;;28.35;;
76409;SDS011;65238;42.662;23.280;2023-12-20T00:39:09;64.15;;;28.52;;
76409;SDS011;65238;42.662;23.280;2023-12-20T00:41:35;63.42;;;28.30;;
76409;SDS011;65238;42.662;23.280;2023-12-20T00:44:00;57.97;;;28.92;;
76409;SDS011;65238;42.662;23.280;2023-12-20T00:46:26;64.68;;;29.23;;
76409;SDS011;65238;42.662;23.280;2023-12-20T00:48:51;72.88;;;32.95;;
76409;SDS011;65238;42.662;23.280;2023-12-20T00:51:17;70.72;;;32.83;;
76409;SDS011;65238;42.662;23.280;2023-12-20T00:53:42;72.68;;;32.35;;
76409;SDS011;65238;42.662;23.280;2023-12-20T00:56:08;69.55;;;31.60;;
76409;SDS011;65238;42.662;23.280;2023-12-20T00:58:34;62.72;;;29.25;;
76409;SDS011;65238;42.662;23.280;2023-12-20T01:00:59;56.95;;;29.00;;
76409;SDS011;65238;42.662;23.280;2023-12-20T01:03:25;51.92;;;25.02;;
76409;SDS011;65238;42.662;23.280;2023-12-20T01:05:50;53.92;;;25.13;;
76409;SDS011;65238;42.662;23.280;2023-12-20T01:08:16;59.42;;;25.02;;
76409;SDS011;65238;42.662;23.280;2023-12-20T01:10:41;53.45;;;25.83;;
76409;SDS011;65238;42.662;23.280;2023-12-20T01:13:07;57.35;;;25.10;;
76409;SDS011;65238;42.662;23.280;2023-12-20T01:15:33;54.38;;;24.83;;
76409;SDS011;65238;42.662;23.280;2023-12-20T01:17:59;49.95;;;24.88;;
76409;SDS011;65238;42.662;23.280;2023-12-20T01:20:24;57.58;;;23.83;;
76409;SDS011;65238;42.662;23.280;2023-12-20T01:22:50;47.08;;;21.60;;
76409;SDS011;65238;42.662;23.280;2023-12-20T01:25:16;44.85;;;22.25;;
76409;SDS011;65238;42.662;23.280;2023-12-20T01:27:41;53.42;;;23.42;;
76409;SDS011;65238;42.662;23.280;2023-12-20T01:30:07;50.65;;;21.40;;
76409;SDS011;65238;42.662;23.280;2023-12-20T01:32:35;44.17;;;20.52;;
76409;SDS011;65238;42.662;23.280;2023-12-20T01:35:01;45.95;;;20.08;;
76409;SDS011;65238;42.662;23.280;2023-12-20T01:37:26;47.50;;;20.50;;
76409;SDS011;65238;42.662;23.280;2023-12-20T01:39:54;48.00;;;19.63;;
76409;SDS011;65238;42.662;23.280;2023-12-20T01:42:19;46.17;;;20.55;;
76409;SDS011;65238;42.662;23.280;2023-12-20T01:44:45;49.35;;;23.15;;
76409;SDS011;65238;42.662;23.280;2023-12-20T01:47:10;46.15;;;21.38;;
76409;SDS011;65238;42.662;23.280;2023-12-20T01:49:36;42.53;;;19.00;;
76409;SDS011;65238;42.662;23.280;2023-12-20T01:52:02;55.25;;;25.92;;
76409;SDS011;65238;42.662;23.280;2023-12-20T01:54:28;45.25;;;20.40;;
76409;SDS011;65238;42.662;23.280;2023-12-20T01:56:53;47.00;;;20.10;;
76409;SDS011;65238;42.662;23.280;2023-12-20T01:59:19;39.33;;;19.00;;
76409;SDS011;65238;42.662;23.280;2023-12-20T02:01:46;44.00;;;18.83;;
76409;SDS011;65238;42.662;23.280;2023-12-20T02:04:12;41.40;;;17.10;;
76409;SDS011;65238;42.662;23.280;2023-12-20T02:06:37;35.28;;;17.83;;
76409;SDS011;65238;42.662;23.280;2023-12-20T02:09:05;39.33;;;19.13;;
76409;SDS011;65238;42.662;23.280;2023-12-20T02:11:32;35.50;;;18.90;;
76409;SDS011;65238;42.662;23.280;2023-12-20T02:13:58;40.33;;;19.80;;
76409;SDS011;65238;42.662;23.280;2023-12-20T02:16:23;34.10;;;18.00;;
76409;SDS011;65238;42.662;23.280;2023-12-20T02:18:49;39.08;;;18.85;;
76409;SDS011;65238;42.662;23.280;2023-12-20T02:21:14;52.10;;;24.63;;
76409;SDS011;65238;42.662;23.280;2023-12-20T02:23:40;53.40;;;21.70;;
76409;SDS011;65238;42.662;23.280;2023-12-20T02:26:05;50.38;;;23.23;;
76409;SDS011;65238;42.662;23.280;2023-12-20T02:28:31;45.10;;;22.80;;
76409;SDS011;65238;42.662;23.280;2023-12-20T02:30:57;48.55;;;21.98;;
76409;SDS011;65238;42.662;23.280;2023-12-20T02:33:22;54.50;;;23.40;;
76409;SDS011;65238;42.662;23.280;2023-12-20T02:35:48;49.65;;;22.90;;
76409;SDS011;65238;42.662;23.280;2023-12-20T02:38:13;52.50;;;26.10;;
76409;SDS011;65238;42.662;23.280;2023-12-20T02:40:39;62.08;;;26.73;;
76409;SDS011;65238;42.662;23.280;2023-12-20T02:43:04;53.03;;;25.48;;
76409;SDS011;65238;42.662;23.280;2023-12-20T02:45:30;56.75;;;27.00;;
76409;SDS011;65238;42.662;23.280;2023-12-20T02:47:55;61.42;;;27.38;;
76409;SDS011;65238;42.662;23.280;2023-12-20T02:50:21;48.47;;;24.05;;
76409;SDS011;65238;42.662;23.280;2023-12-20T02:52:47;52.47;;;25.73;;
76409;SDS011;65238;42.662;23.280;2023-12-20T02:55:12;51.15;;;24.83;;
76409;SDS011;65238;42.662;23.280;2023-12-20T02:57:38;48.63;;;24.52;;
76409;SDS011;65238;42.662;23.280;2023-12-20T03:00:07;60.63;;;27.88;;
76409;SDS011;65238;42.662;23.280;2023-12-20T03:02:34;56.58;;;26.00;;
76409;SDS011;65238;42.662;23.280;2023-12-20T03:04:59;61.75;;;27.40;;
76409;SDS011;65238;42.662;23.280;2023-12-20T03:07:25;56.75;;;27.20;;
76409;SDS011;65238;42.662;23.280;2023-12-20T03:09:50;59.60;;;27.40;;
76409;SDS011;65238;42.662;23.280;2023-12-20T03:12:16;56.20;;;27.27;;
76409;SDS011;65238;42.662;23.280;2023-12-20T03:14:43;57.28;;;26.77;;
76409;SDS011;65238;42.662;23.280;2023-12-20T03:17:08;56.25;;;26.77;;
76409;SDS011;65238;42.662;23.280;2023-12-20T03:19:34;58.17;;;26.73;;
76409;SDS011;65238;42.662;23.280;2023-12-20T03:21:59;56.83;;;26.38;;
76409;SDS011;65238;42.662;23.280;2023-12-20T03:24:26;61.95;;;26.77;;
76409;SDS011;65238;42.662;23.280;2023-12-20T03:26:51;61.22;;;26.50;;
76409;SDS011;65238;42.662;23.280;2023-12-20T03:29:17;65.25;;;27.40;;
76409;SDS011;65238;42.662;23.280;2023-12-20T03:31:43;61.50;;;28.75;;
76409;SDS011;65238;42.662;23.280;2023-12-20T03:34:08;58.75;;;25.92;;
76409;SDS011;65238;42.662;23.280;2023-12-20T03:36:34;53.13;;;26.50;;
76409;SDS011;65238;42.662;23.280;2023-12-20T03:38:59;55.22;;;26.20;;
76409;SDS011;65238;42.662;23.280;2023-12-20T03:41:25;56.17;;;25.83;;
76409;SDS011;65238;42.662;23.280;2023-12-20T03:43:50;57.25;;;27.08;;
76409;SDS011;65238;42.662;23.280;2023-12-20T03:46:16;56.67;;;27.63;;
76409;SDS011;65238;42.662;23.280;2023-12-20T03:48:42;57.67;;;27.13;;
76409;SDS011;65238;42.662;23.280;2023-12-20T03:51:08;64.05;;;27.55;;
76409;SDS011;65238;42.662;23.280;2023-12-20T03:53:33;61.15;;;28.10;;
76409;SDS011;65238;42.662;23.280;2023-12-20T03:55:59;60.25;;;27.35;;
76409;SDS011;65238;42.662;23.280;2023-12-20T03:58:24;54.78;;;26.65;;
76409;SDS011;65238;42.662;23.280;2023-12-20T04:00:50;56.33;;;25.65;;
76409;SDS011;65238;42.662;23.280;2023-12-20T04:03:15;56.25;;;27.98;;
76409;SDS011;65238;42.662;23.280;2023-12-20T04:05:41;52.45;;;24.42;;
76409;SDS011;65238;42.662;23.280;2023-12-20T04:08:07;52.53;;;24.58;;
76409;SDS011;65238;42.662;23.280;2023-12-20T04:10:32;53.80;;;26.02;;
76409;SDS011;65238;42.662;23.280;2023-12-20T04:13:00;50.05;;;25.05;;
76409;SDS011;65238;42.662;23.280;2023-12-20T04:15:26;50.00;;;24.40;;
76409;SDS011;65238;42.662;23.280;2023-12-20T04:17:51;57.15;;;25.33;;
76409;SDS011;65238;42.662;23.280;2023-12-20T04:20:17;53.85;;;23.38;;
76409;SDS011;65238;42.662;23.280;2023-12-20T04:22:42;55.03;;;25.60;;
76409;SDS011;65238;42.662;23.280;2023-12-20T04:25:08;52.53;;;25.50;;
76409;SDS011;65238;42.662;23.280;2023-12-20T04:27:33;48.08;;;24.33;;
76409;SDS011;65238;42.662;23.280;2023-12-20T04:29:59;56.92;;;26.02;;
76409;SDS011;65238;42.662;23.280;2023-12-20T04:32:24;56.33;;;26.70;;
76409;SDS011;65238;42.662;23.280;2023-12-20T04:34:50;55.90;;;25.65;;
76409;SDS011;65238;42.662;23.280;2023-12-20T04:37:15;61.28;;;26.58;;
76409;SDS011;65238;42.662;23.280;2023-12-20T04:39:41;52.42;;;24.45;;
76409;SDS011;65238;42.662;23.280;2023-12-20T04:42:07;59.05;;;25.83;;
76409;SDS011;65238;42.662;23.280;2023-12-20T04:44:33;69.75;;;32.03;;
76409;SDS011;65238;42.662;23.280;2023-12-20T04:46:59;65.95;;;32.03;;
76409;SDS011;65238;42.662;23.280;2023-12-20T04:49:24;92.05;;;38.67;;
76409;SDS011;65238;42.662;23.280;2023-12-20T04:51:50;83.32;;;39.50;;
76409;SDS011;65238;42.662;23.280;2023-12-20T04:54:15;79.93;;;37.75;;
76409;SDS011;65238;42.662;23.280;2023-12-20T04:56:41;62.55;;;30.35;;
76409;SDS011;65238;42.662;23.280;2023-12-20T04:59:07;61.72;;;29.80;;
76409;SDS011;65238;42.662;23.280;2023-12-20T05:01:32;63.58;;;29.92;;
76409;SDS011;65238;42.662;23.280;2023-12-20T05:03:57;62.63;;;27.88;;
76409;SDS011;65238;42.662;23.280;2023-12-20T05:06:23;67.30;;;28.95;;
76409;SDS011;65238;42.662;23.280;2023-12-20T05:08:49;52.88;;;25.55;;
76409;SDS011;65238;42.662;23.280;2023-12-20T05:11:15;59.50;;;27.23;;
76409;SDS011;65238;42.662;23.280;2023-12-20T05:13:41;62.05;;;27.50;;
76409;SDS011;65238;42.662;23.280;2023-12-20T05:16:07;56.78;;;26.92;;
76409;SDS011;65238;42.662;23.280;2023-12-20T05:18:34;62.17;;;28.23;;
76409;SDS011;65238;42.662;23.280;2023-12-20T05:21:00;67.90;;;29.63;;
76409;SDS011;65238;42.662;23.280;2023-12-20T05:23:26;59.35;;;28.48;;
76409;SDS011;65238;42.662;23.280;2023-12-20T05:25:51;60.65;;;29.55;;
76409;SDS011;65238;42.662;23.280;2023-12-20T05:28:17;68.88;;;33.10;;
76409;SDS011;65238;42.662;23.280;2023-12-20T05:30:42;70.25;;;31.58;;
76409;SDS011;65238;42.662;23.280;2023-12-20T05:33:08;68.32;;;33.83;;
76409;SDS011;65238;42.662;23.280;2023-12-20T05:35:34;62.80;;;30.35;;
76409;SDS011;65238;42.662;23.280;2023-12-20T05:37:59;61.97;;;30.25;;
76409;SDS011;65238;42.662;23.280;2023-12-20T05:40:27;73.63;;;33.45;;
76409;SDS011;65238;42.662;23.280;2023-12-20T05:42:53;83.57;;;39.25;;
76409;SDS011;65238;42.662;23.280;2023-12-20T05:45:19;95.32;;;42.65;;
76409;SDS011;65238;42.662;23.280;2023-12-20T05:47:44;99.82;;;45.75;;
76409;SDS011;65238;42.662;23.280;2023-12-20T05:50:10;115.90;;;49.25;;
76409;SDS011;65238;42.662;23.280;2023-12-20T05:52:35;117.03;;;50.72;;
76409;SDS011;65238;42.662;23.280;2023-12-20T05:55:01;129.65;;;59.42;;
76409;SDS011;65238;42.662;23.280;2023-12-20T05:57:26;147.23;;;67.95;;
76409;SDS011;65238;42.662;23.280;2023-12-20T05:59:52;166.55;;;71.82;;
76409;SDS011;65238;42.662;23.280;2023-12-20T06:02:18;165.55;;;75.43;;
76409;SDS011;65238;42.662;23.280;2023-12-20T06:04:43;169.95;;;78.30;;
76409;SDS011;65238;42.662;23.280;2023-12-20T06:07:11;171.43;;;76.28;;
76409;SDS011;65238;42.662;23.280;2023-12-20T06:09:37;168.63;;;76.05;;
76409;SDS011;65238;42.662;23.280;2023-12-20T06:12:02;165.40;;;73.50;;
76409;SDS011;65238;42.662;23.280;2023-12-20T06:14:28;166.48;;;71.90;;
76409;SDS011;65238;42.662;23.280;2023-12-20T06:16:56;155.25;;;70.53;;
76409;SDS011;65238;42.662;23.280;2023-12-20T06:19:22;170.32;;;74.95;;
76409;SDS011;65238;42.662;23.280;2023-12-20T06:21:47;168.73;;;74.15;;
76409;SDS011;65238;42.662;23.280;2023-12-20T06:24:13;159.82;;;67.60;;
76409;SDS011;65238;42.662;23.280;2023-12-20T06:26:38;159.18;;;66.53;;
76409;SDS011;65238;42.662;23.280;2023-12-20T06:29:04;151.55;;;62.78;;
76409;SDS011;65238;42.662;23.280;2023-12-20T06:31:29;156.93;;;63.55;;
76409;SDS011;65238;42.662;23.280;2023-12-20T06:33:58;156.93;;;63.75;;
76409;SDS011;65238;42.662;23.280;2023-12-20T06:36:24;145.02;;;59.72;;
76409;SDS011;65238;42.662;23.280;2023-12-20T06:38:51;162.50;;;63.58;;
76409;SDS011;65238;42.662;23.280;2023-12-20T06:41:16;156.60;;;65.57;;
76409;SDS011;65238;42.662;23.280;2023-12-20T06:43:42;159.45;;;61.53;;
76409;SDS011;65238;42.662;23.280;2023-12-20T06:46:07;159.48;;;61.25;;
76409;SDS011;65238;42.662;23.280;2023-12-20T06:48:34;161.40;;;59.53;;
76409;SDS011;65238;42.662;23.280;2023-12-20T06:51:00;158.25;;;63.10;;
76409;SDS011;65238;42.662;23.280;2023-12-20T06:53:27;154.18;;;60.83;;
76409;SDS011;65238;42.662;23.280;2023-12-20T06:55:53;150.35;;;63.22;;
76409;SDS011;65238;42.662;23.280;2023-12-20T06:58:21;159.40;;;62.45;;
76409;SDS011;65238;42.662;23.280;2023-12-20T07:00:47;150.52;;;64.47;;
76409;SDS011;65238;42.662;23.280;2023-12-20T07:03:12;164.35;;;65.03;;
76409;SDS011;65238;42.662;23.280;2023-12-20T07:05:38;166.43;;;66.53;;
76409;SDS011;65238;42.662;23.280;2023-12-20T07:08:04;176.68;;;66.82;;
76409;SDS011;65238;42.662;23.280;2023-12-20T07:10:32;171.85;;;67.97;;
76409;SDS011;65238;42.662;23.280;2023-12-20T07:12:58;169.82;;;67.32;;
76409;SDS011;65238;42.662;23.280;2023-12-20T07:15:26;166.27;;;65.78;;
76409;SDS011;65238;42.662;23.280;2023-12-20T07:17:52;154.07;;;63.05;;
76409;SDS011;65238;42.662;23.280;2023-12-20T07:20:18;159.25;;;64.85;;
76409;SDS011;65238;42.662;23.280;2023-12-20T07:22:44;159.25;;;63.47;;
76409;SDS011;65238;42.662;23.280;2023-12-20T07:25:16;150.90;;;63.95;;
76409;SDS011;65238;42.662;23.280;2023-12-20T07:27:43;153.95;;;63.10;;
76409;SDS011;65238;42.662;23.280;2023-12-20T07:30:09;153.40;;;63.67;;
76409;SDS011;65238;42.662;23.280;2023-12-20T07:32:38;152.32;;;62.25;;
76409;SDS011;65238;42.662;23.280;2023-12-20T07:35:04;156.00;;;62.63;;
76409;SDS011;65238;42.662;23.280;2023-12-20T07:37:30;143.43;;;63.00;;
76409;SDS011;65238;42.662;23.280;2023-12-20T07:39:56;149.93;;;62.75;;
76409;SDS011;65238;42.662;23.280;2023-12-20T07:42:22;143.02;;;64.13;;
76409;SDS011;65238;42.662;23.280;2023-12-20T07:44:47;159.73;;;65.15;;
76409;SDS011;65238;42.662;23.280;2023-12-20T07:47:13;158.07;;;65.50;;
76409;SDS011;65238;42.662;23.280;2023-12-20T07:49:43;174.20;;;69.22;;
76409;SDS011;65238;42.662;23.280;2023-12-20T07:52:09;187.40;;;75.63;;
76409;SDS011;65238;42.662;23.280;2023-12-20T07:54:37;202.93;;;77.47;;
76409;SDS011;65238;42.662;23.280;2023-12-20T07:57:06;174.68;;;75.22;;
76409;SDS011;65238;42.662;23.280;2023-12-20T07:59:35;189.73;;;76.03;;
76409;SDS011;65238;42.662;23.280;2023-12-20T08:02:01;202.45;;;80.72;;
76409;SDS011;65238;42.662;23.280;2023-12-20T08:04:27;245.27;;;101.10;;
76409;SDS011;65238;42.662;23.280;2023-12-20T08:06:52;209.32;;;81.10;;
76409;SDS011;65238;42.662;23.280;2023-12-20T08:09:30;215.60;;;81.30;;
76409;SDS011;65238;42.662;23.280;2023-12-20T08:14:57;223.63;;;82.05;;
76409;SDS011;65238;42.662;23.280;2023-12-20T08:17:40;220.75;;;83.35;;
76409;SDS011;65238;42.662;23.280;2023-12-20T08:20:10;237.52;;;87.35;;
76409;SDS011;65238;42.662;23.280;2023-12-20T08:22:36;219.82;;;86.88;;
76409;SDS011;65238;42.662;23.280;2023-12-20T08:25:02;235.32;;;88.38;;
76409;SDS011;65238;42.662;23.280;2023-12-20T08:27:27;235.25;;;88.03;;
76409;SDS011;65238;42.662;23.280;2023-12-20T08:29:53;251.13;;;90.03;;
76409;SDS011;65238;42.662;23.280;2023-12-20T08:32:18;250.68;;;95.88;;
76409;SDS011;65238;42.662;23.280;2023-12-20T08:34:44;249.05;;;91.78;;
76409;SDS011;65238;42.662;23.280;2023-12-20T08:37:09;237.55;;;91.55;;
76409;SDS011;65238;42.662;23.280;2023-12-20T08:39:35;213.43;;;83.80;;
76409;SDS011;65238;42.662;23.280;2023-12-20T08:42:00;232.00;;;90.25;;
76409;SDS011;65238;42.662;23.280;2023-12-20T08:44:25;225.20;;;88.35;;
76409;SDS011;65238;42.662;23.280;2023-12-20T08:46:51;229.43;;;85.97;;
76409;SDS011;65238;42.662;23.280;2023-12-20T08:49:16;229.57;;;90.45;;
76409;SDS011;65238;42.662;23.280;2023-12-20T08:51:42;225.18;;;87.35;;
76409;SDS011;65238;42.662;23.280;2023-12-20T08:54:08;231.07;;;89.68;;
76409;SDS011;65238;42.662;23.280;2023-12-20T08:56:34;207.60;;;83.40;;
76409;SDS011;65238;42.662;23.280;2023-12-20T08:58:59;227.52;;;90.18;;
76409;SDS011;65238;42.662;23.280;2023-12-20T09:01:25;220.55;;;87.07;;
76409;SDS011;65238;42.662;23.280;2023-12-20T09:03:50;213.73;;;85.43;;
76409;SDS011;65238;42.662;23.280;2023-12-20T09:06:16;206.70;;;83.95;;
76409;SDS011;65238;42.662;23.280;2023-12-20T09:08:42;262.70;;;104.25;;
76409;SDS011;65238;42.662;23.280;2023-12-20T09:11:07;300.98;;;131.88;;
76409;SDS011;65238;42.662;23.280;2023-12-20T09:13:32;217.70;;;89.15;;
76409;SDS011;65238;42.662;23.280;2023-12-20T09:15:58;200.10;;;86.32;;
76409;SDS011;65238;42.662;23.280;2023-12-20T09:18:23;186.77;;;82.75;;
76409;SDS011;65238;42.662;23.280;2023-12-20T09:20:49;176.30;;;79.78;;
76409;SDS011;65238;42.662;23.280;2023-12-20T09:23:15;166.25;;;74.53;;
76409;SDS011;65238;42.662;23.280;2023-12-20T09:25:40;163.90;;;77.45;;
76409;SDS011;65238;42.662;23.280;2023-12-20T09:28:05;171.15;;;79.30;;
76409;SDS011;65238;42.662;23.280;2023-12-20T09:30:31;166.38;;;75.93;;
76409;SDS011;65238;42.662;23.280;2023-12-20T09:32:56;173.07;;;81.80;;
76409;SDS011;65238;42.662;23.280;2023-12-20T09:35:22;164.85;;;75.35;;
76409;SDS011;65238;42.662;23.280;2023-12-20T09:37:48;178.55;;;80.85;;
76409;SDS011;65238;42.662;23.280;2023-12-20T09:40:13;170.63;;;77.45;;
76409;SDS011;65238;42.662;23.280;2023-12-20T09:45:23;164.68;;;80.20;;
76409;SDS011;65238;42.662;23.280;2023-12-20T09:47:52;172.80;;;80.35;;
76409;SDS011;65238;42.662;23.280;2023-12-20T09:52:50;191.93;;;83.78;;
76409;SDS011;65238;42.662;23.280;2023-12-20T09:55:17;189.27;;;82.97;;
76409;SDS011;65238;42.662;23.280;2023-12-20T09:57:44;206.30;;;83.15;;
76409;SDS011;65238;42.662;23.280;2023-12-20T10:00:10;185.80;;;82.53;;
76409;SDS011;65238;42.662;23.280;2023-12-20T10:02:36;197.07;;;85.97;;
76409;SDS011;65238;42.662;23.280;2023-12-20T10:05:06;207.48;;;83.55;;
76409;SDS011;65238;42.662;23.280;2023-12-20T10:07:34;191.18;;;87.07;;
76409;SDS011;65238;42.662;23.280;2023-12-20T10:10:00;189.80;;;82.85;;
76409;SDS011;65238;42.662;23.280;2023-12-20T10:12:27;180.95;;;82.00;;
76409;SDS011;65238;42.662;23.280;2023-12-20T10:14:53;198.82;;;85.35;;
76409;SDS011;65238;42.662;23.280;2023-12-20T10:17:18;199.65;;;86.95;;
76409;SDS011;65238;42.662;23.280;2023-12-20T10:19:44;209.57;;;87.25;;
76409;SDS011;65238;42.662;23.280;2023-12-20T10:22:09;218.40;;;89.45;;
76409;SDS011;65238;42.662;23.280;2023-12-20T10:24:35;213.75;;;88.95;;
76409;SDS011;65238;42.662;23.280;2023-12-20T10:27:01;206.55;;;84.95;;
76409;SDS011;65238;42.662;23.280;2023-12-20T10:29:33;221.73;;;88.68;;
76409;SDS011;65238;42.662;23.280;2023-12-20T10:31:59;209.55;;;89.18;;
76409;SDS011;65238;42.662;23.280;2023-12-20T10:34:25;212.60;;;85.65;;
76409;SDS011;65238;42.662;23.280;2023-12-20T10:36:51;216.63;;;91.07;;
76409;SDS011;65238;42.662;23.280;2023-12-20T10:39:17;211.88;;;87.68;;
76409;SDS011;65238;42.662;23.280;2023-12-20T10:41:45;222.15;;;92.47;;
76409;SDS011;65238;42.662;23.280;2023-12-20T10:44:11;213.98;;;89.20;;
76409;SDS011;65238;42.662;23.280;2023-12-20T10:46:37;202.00;;;87.28;;
76409;SDS011;65238;42.662;23.280;2023-12-20T10:49:05;205.60;;;89.53;;
76409;SDS011;65238;42.662;23.280;2023-12-20T10:51:31;209.45;;;89.07;;
76409;SDS011;65238;42.662;23.280;2023-12-20T10:53:56;200.43;;;89.18;;
76409;SDS011;65238;42.662;23.280;2023-12-20T10:56:22;199.55;;;87.68;;
76409;SDS011;65238;42.662;23.280;2023-12-20T10:58:51;205.55;;;90.22;;
76409;SDS011;65238;42.662;23.280;2023-12-20T11:01:17;205.45;;;89.35;;
76409;SDS011;65238;42.662;23.280;2023-12-20T11:03:53;192.73;;;85.60;;
76409;SDS011;65238;42.662;23.280;2023-12-20T11:08:50;192.93;;;87.53;;
76409;SDS011;65238;42.662;23.280;2023-12-20T11:11:24;195.77;;;86.72;;
76409;SDS011;65238;42.662;23.280;2023-12-20T11:14:03;198.07;;;91.38;;
76409;SDS011;65238;42.662;23.280;2023-12-20T11:16:32;193.73;;;87.35;;
76409;SDS011;65238;42.662;23.280;2023-12-20T11:18:57;195.88;;;88.43;;
76409;SDS011;65238;42.662;23.280;2023-12-20T11:21:23;196.45;;;86.30;;
76409;SDS011;65238;42.662;23.280;2023-12-20T11:23:48;203.18;;;88.85;;
76409;SDS011;65238;42.662;23.280;2023-12-20T11:26:17;195.63;;;88.65;;
76409;SDS011;65238;42.662;23.280;2023-12-20T11:28:48;170.23;;;81.95;;
76409;SDS011;65238;42.662;23.280;2023-12-20T11:31:13;163.70;;;79.43;;
76409;SDS011;65238;42.662;23.280;2023-12-20T11:33:39;160.95;;;78.80;;
76409;SDS011;65238;42.662;23.280;2023-12-20T11:36:12;166.52;;;77.22;;
76409;SDS011;65238;42.662;23.280;2023-12-20T11:38:39;158.85;;;75.68;;
76409;SDS011;65238;42.662;23.280;2023-12-20T11:41:18;155.77;;;74.40;;
76409;SDS011;65238;42.662;23.280;2023-12-20T11:43:44;161.70;;;75.05;;
76409;SDS011;65238;42.662;23.280;2023-12-20T11:46:09;159.32;;;78.57;;
76409;SDS011;65238;42.662;23.280;2023-12-20T11:48:36;161.02;;;73.45;;
76409;SDS011;65238;42.662;23.280;2023-12-20T11:51:08;171.45;;;76.20;;
76409;SDS011;65238;42.662;23.280;2023-12-20T11:53:34;172.23;;;78.18;;
76409;SDS011;65238;42.662;23.280;2023-12-20T11:56:02;175.57;;;76.18;;
76409;SDS011;65238;42.662;23.280;2023-12-20T11:58:29;179.95;;;77.30;;
76409;SDS011;65238;42.662;23.280;2023-12-20T12:00:55;173.40;;;76.53;;
76409;SDS011;65238;42.662;23.280;2023-12-20T12:03:20;168.50;;;74.97;;
76409;SDS011;65238;42.662;23.280;2023-12-20T12:05:47;171.20;;;74.82;;
76409;SDS011;65238;42.662;23.280;2023-12-20T12:08:13;175.25;;;75.40;;
76409;SDS011;65238;42.662;23.280;2023-12-20T12:10:39;165.07;;;72.85;;
76409;SDS011;65238;42.662;23.280;2023-12-20T12:13:04;167.20;;;73.40;;
76409;SDS011;65238;42.662;23.280;2023-12-20T12:15:30;176.93;;;75.32;;
76409;SDS011;65238;42.662;23.280;2023-12-20T12:17:56;174.13;;;72.97;;
76409;SDS011;65238;42.662;23.280;2023-12-20T12:20:22;150.38;;;72.55;;
76409;SDS011;65238;42.662;23.280;2023-12-20T12:22:58;147.32;;;67.50;;
76409;SDS011;65238;42.662;23.280;2023-12-20T12:25:24;159.38;;;67.18;;
76409;SDS011;65238;42.662;23.280;2023-12-20T12:27:50;151.02;;;65.88;;
76409;SDS011;65238;42.662;23.280;2023-12-20T12:30:16;148.18;;;67.32;;
76409;SDS011;65238;42.662;23.280;2023-12-20T12:32:43;156.38;;;69.15;;
76409;SDS011;65238;42.662;23.280;2023-12-20T12:35:09;144.38;;;63.80;;
76409;SDS011;65238;42.662;23.280;2023-12-20T12:37:37;141.70;;;65.65;;
76409;SDS011;65238;42.662;23.280;2023-12-20T12:40:05;149.85;;;65.03;;
76409;SDS011;65238;42.662;23.280;2023-12-20T12:42:38;152.70;;;65.63;;
76409;SDS011;65238;42.662;23.280;2023-12-20T12:45:04;148.27;;;64.97;;
76409;SDS011;65238;42.662;23.280;2023-12-20T12:47:30;140.13;;;63.08;;
76409;SDS011;65238;42.662;23.280;2023-12-20T12:49:56;153.35;;;63.22;;
76409;SDS011;65238;42.662;23.280;2023-12-20T12:52:22;144.30;;;63.92;;
76409;SDS011;65238;42.662;23.280;2023-12-20T12:54:47;142.68;;;66.20;;
76409;SDS011;65238;42.662;23.280;2023-12-20T12:57:13;144.80;;;62.10;;
76409;SDS011;65238;42.662;23.280;2023-12-20T12:59:40;154.40;;;66.20;;
76409;SDS011;65238;42.662;23.280;2023-12-20T13:02:06;140.05;;;65.15;;
76409;SDS011;65238;42.662;23.280;2023-12-20T13:04:31;153.68;;;66.22;;
76409;SDS011;65238;42.662;23.280;2023-12-20T13:06:57;157.43;;;68.35;;
76409;SDS011;65238;42.662;23.280;2023-12-20T13:09:22;166.32;;;69.47;;
76409;SDS011;65238;42.662;23.280;2023-12-20T13:11:48;164.93;;;71.75;;
76409;SDS011;65238;42.662;23.280;2023-12-20T13:14:14;176.00;;;71.97;;
76409;SDS011;65238;42.662;23.280;2023-12-20T13:16:41;166.00;;;69.90;;
76409;SDS011;65238;42.662;23.280;2023-12-20T13:19:06;160.10;;;70.72;;
76409;SDS011;65238;42.662;23.280;2023-12-20T13:21:32;165.82;;;72.03;;
76409;SDS011;65238;42.662;23.280;2023-12-20T13:23:58;155.77;;;69.47;;
76409;SDS011;65238;42.662;23.280;2023-12-20T13:26:24;154.70;;;68.05;;
76409;SDS011;65238;42.662;23.280;2023-12-20T13:28:50;153.68;;;70.45;;
76409;SDS011;65238;42.662;23.280;2023-12-20T13:31:15;166.98;;;72.47;;
76409;SDS011;65238;42.662;23.280;2023-12-20T13:33:41;153.80;;;66.63;;
76409;SDS011;65238;42.662;23.280;2023-12-20T13:36:06;153.95;;;67.50;;
76409;SDS011;65238;42.662;23.280;2023-12-20T13:38:33;155.55;;;67.53;;
76409;SDS011;65238;42.662;23.280;2023-12-20T13:40:58;159.50;;;68.20;;
76409;SDS011;65238;42.662;23.280;2023-12-20T13:43:24;157.32;;;69.38;;
76409;SDS011;65238;42.662;23.280;2023-12-20T13:45:50;159.13;;;69.28;;
76409;SDS011;65238;42.662;23.280;2023-12-20T13:48:18;163.70;;;69.30;;
76409;SDS011;65238;42.662;23.280;2023-12-20T13:50:44;155.50;;;66.45;;
76409;SDS011;65238;42.662;23.280;2023-12-20T13:53:10;168.73;;;70.50;;
76409;SDS011;65238;42.662;23.280;2023-12-20T13:55:36;160.75;;;67.78;;
76409;SDS011;65238;42.662;23.280;2023-12-20T13:58:02;154.35;;;65.85;;
76409;SDS011;65238;42.662;23.280;2023-12-20T14:00:27;159.30;;;68.65;;
76409;SDS011;65238;42.662;23.280;2023-12-20T14:02:53;157.30;;;71.07;;
76409;SDS011;65238;42.662;23.280;2023-12-20T14:05:19;166.45;;;72.70;;